Vremea acum in Valea Lui Mihai - Romania

Vrei sa afli care e starea vremii acum in Bihor - Romania? Dorim sa iti furnizam starea vremii pentru Bihor - Romania. Starea vremii Bihor - Romania pentru astazi.

Vremea acum in Valea Lui Mihai

Temperatura: 6.4 °C

Este: Senin
Se simte ca: 5.4 °C
Innorat: 0 %
Precipitatii: 0 %
Presiune atmosferica: 1020 hPa
Umiditate: 75%
Vizibilitate: 10 km
Vantul bate din SSW cu 5.8 km/h

Evolutia vremii in Valea Lui Mihai pe ore

Ora: 06:00
Senin
Temperatura: 6.4°C
Sansa de precipitatii: 0%
Ora Descriere Temp Se simte Precipitatii Umiditate Vant
00:00Senin11.2°11°0%61%WSW 5.8 KM/H
01:00Senin10.8°10.2°0%63%WSW 6.5 KM/H
02:00Senin10.1°9.6°0%66%WSW 6.1 KM/H
03:00Senin9.5°9.1°0%70%WSW 5.4 KM/H
04:00Senin8.9°0%73%SW 4.3 KM/H
05:00Senin8.7°8.2°0%75%SSW 5 KM/H
06:00Senin6.4°8.7°0%75%SSW 5.8 KM/H
07:00Senin11.8°11.6°0%67%SSW 6.1 KM/H
08:00Senin14.4°14.3°0%59%SW 7.2 KM/H
09:00Senin16.5°16.5°0%53%WSW 8.3 KM/H
10:00Senin18.4°18.4°0%48%W 9.4 KM/H
11:00Senin19.9°19.9°0%44%W 10.1 KM/H
12:00Senin21.2°21.2°0%40%W 10.1 KM/H
13:00Senin22°23.9°0%37%W 9.4 KM/H
14:00Senin22.8°23.9°0%35%WSW 8.6 KM/H
15:00Senin23.2°24°0%33%WSW 8.3 KM/H
16:00Senin23.3°24°0%33%WSW 7.6 KM/H
17:00Senin23.1°24°0%34%SW 7.2 KM/H
18:00Senin22.4°24.2°0%42%SW 7.6 KM/H
19:00Senin19.3°19.3°0%50%WSW 7.9 KM/H
20:00Senin16.5°16.5°0%52%WSW 7.6 KM/H
21:00Senin15.2°15.2°0%55%WSW 6.8 KM/H
22:00Senin14.3°14.4°0%57%SW 6.1 KM/H
23:00Senin13.6°13.7°0%58%SSW 5.8 KM/H




tutorials